createdAt,value
2019-01-16T00:00:13.157Z,7.84
2019-01-16T00:01:13.242Z,7.84
2019-01-16T00:02:13.331Z,7.90
2019-01-16T00:03:13.418Z,7.82
2019-01-16T00:04:13.506Z,7.78
2019-01-16T00:05:13.595Z,7.60
2019-01-16T00:06:13.681Z,7.69
2019-01-16T00:07:13.772Z,7.66
2019-01-16T00:08:13.857Z,7.63
2019-01-16T00:09:13.944Z,7.66
2019-01-16T00:10:14.037Z,7.67
2019-01-16T00:11:14.122Z,7.74
2019-01-16T00:12:14.215Z,7.59
2019-01-16T00:13:14.296Z,7.72
2019-01-16T00:14:14.387Z,7.77
2019-01-16T00:15:14.475Z,7.79
2019-01-16T00:16:14.565Z,7.79
2019-01-16T00:17:14.658Z,7.72
2019-01-16T00:18:17.186Z,7.69
2019-01-16T00:19:14.834Z,7.71
2019-01-16T00:20:14.911Z,7.78
2019-01-16T00:21:15.105Z,7.75
2019-01-16T00:22:15.076Z,7.77
2019-01-16T00:23:15.201Z,7.78
2019-01-16T00:24:15.247Z,7.81
2019-01-16T00:25:15.336Z,7.82
2019-01-16T00:26:15.426Z,7.81
2019-01-16T00:27:15.515Z,7.81
2019-01-16T00:28:15.607Z,7.81
2019-01-16T00:29:15.699Z,7.77
2019-01-16T00:30:15.780Z,7.77
2019-01-16T00:31:15.866Z,7.77
2019-01-16T00:32:15.955Z,7.78
2019-01-16T00:33:16.045Z,7.78
2019-01-16T00:34:16.132Z,7.79
2019-01-16T00:35:16.225Z,7.84
2019-01-16T00:36:16.313Z,7.81
2019-01-16T00:37:16.403Z,7.81
2019-01-16T00:38:16.492Z,7.81
2019-01-16T00:39:16.579Z,7.75
2019-01-16T00:40:16.670Z,7.79
2019-01-16T00:41:16.757Z,7.74
2019-01-16T00:42:16.848Z,7.72
2019-01-16T00:43:16.936Z,7.79
2019-01-16T00:44:17.024Z,7.81
2019-01-16T00:45:17.112Z,7.82
2019-01-16T00:46:17.202Z,7.84
2019-01-16T00:47:17.291Z,7.82
2019-01-16T00:48:24.401Z,7.77
2019-01-16T00:49:17.470Z,7.72
2019-01-16T00:50:17.559Z,7.71
2019-01-16T00:51:17.650Z,7.75
2019-01-16T00:52:17.738Z,7.63
2019-01-16T00:53:17.830Z,7.75
2019-01-16T00:54:17.925Z,7.66
2019-01-16T00:55:18.005Z,7.74
2019-01-16T00:56:18.092Z,7.63
2019-01-16T00:57:18.182Z,7.66
2019-01-16T00:58:18.273Z,7.67
2019-01-16T00:59:18.380Z,7.69
2019-01-16T01:00:18.450Z,7.75
2019-01-16T01:01:18.540Z,7.78
2019-01-16T01:02:18.626Z,7.79
2019-01-16T01:03:18.715Z,7.75
2019-01-16T01:04:18.802Z,7.81
2019-01-16T01:05:18.888Z,7.78
2019-01-16T01:06:18.977Z,7.81
2019-01-16T01:07:19.066Z,7.78
2019-01-16T01:08:19.156Z,7.82
2019-01-16T01:09:19.244Z,7.84
2019-01-16T01:10:19.331Z,7.82
2019-01-16T01:11:19.420Z,7.78
2019-01-16T01:12:19.509Z,7.78
2019-01-16T01:13:19.599Z,7.42
2019-01-16T01:14:19.688Z,7.41
2019-01-16T01:15:19.779Z,7.52
2019-01-16T01:16:19.867Z,7.52
2019-01-16T01:17:19.953Z,7.53
2019-01-16T01:18:20.046Z,7.56
2019-01-16T01:19:20.137Z,7.55
2019-01-16T01:20:20.226Z,7.45
2019-01-16T01:21:20.314Z,7.50
2019-01-16T01:22:20.400Z,7.44
2019-01-16T01:23:20.490Z,7.56
2019-01-16T01:24:20.581Z,7.59
2019-01-16T01:25:20.667Z,7.58
2019-01-16T01:26:20.753Z,7.67
2019-01-16T01:27:20.843Z,7.63
2019-01-16T01:28:20.932Z,7.60
2019-01-16T01:29:21.021Z,7.62
2019-01-16T01:30:21.112Z,7.56
2019-01-16T01:31:21.202Z,7.58
2019-01-16T01:32:21.327Z,7.56
2019-01-16T01:33:21.375Z,7.50
2019-01-16T01:34:21.596Z,7.60
2019-01-16T01:35:21.562Z,7.63
2019-01-16T01:36:21.648Z,7.62
2019-01-16T01:37:21.739Z,7.60
2019-01-16T01:38:21.823Z,7.53
2019-01-16T01:39:21.909Z,7.44
2019-01-16T01:40:21.999Z,7.52
2019-01-16T01:41:22.087Z,7.50
2019-01-16T01:42:22.178Z,7.58
2019-01-16T01:43:22.268Z,7.58
2019-01-16T01:44:22.455Z,7.69
2019-01-16T01:45:22.425Z,7.60
2019-01-16T01:46:22.512Z,7.63
2019-01-16T01:47:22.599Z,7.67
2019-01-16T01:48:22.687Z,7.58
2019-01-16T01:49:22.776Z,7.62
2019-01-16T01:50:22.865Z,7.66
2019-01-16T01:51:22.954Z,7.67
2019-01-16T01:52:23.043Z,7.60
2019-01-16T01:53:23.131Z,7.60
2019-01-16T01:54:23.219Z,7.71
2019-01-16T01:55:23.308Z,7.59
2019-01-16T01:56:23.398Z,7.66
2019-01-16T01:57:23.486Z,7.75
2019-01-16T01:58:23.578Z,7.67
2019-01-16T01:59:23.664Z,7.74
2019-01-16T02:00:23.757Z,7.78
2019-01-16T02:01:23.849Z,7.74
2019-01-16T02:02:23.936Z,7.74
2019-01-16T02:03:24.024Z,7.75
2019-01-16T02:04:24.112Z,7.74
2019-01-16T02:05:24.202Z,7.82
2019-01-16T02:06:24.286Z,7.85
2019-01-16T02:07:24.377Z,7.56
2019-01-16T02:08:24.469Z,7.45
2019-01-16T02:09:24.557Z,7.47
2019-01-16T02:10:24.645Z,7.50
2019-01-16T02:11:24.733Z,7.58
2019-01-16T02:12:24.824Z,7.58
2019-01-16T02:13:24.916Z,7.34
2019-01-16T02:14:25.004Z,7.38
2019-01-16T02:15:25.092Z,7.52
2019-01-16T02:16:25.180Z,7.41
2019-01-16T02:17:25.270Z,7.50
2019-01-16T02:18:25.359Z,7.56
2019-01-16T02:19:25.447Z,7.53
2019-01-16T02:20:25.535Z,7.52
2019-01-16T02:21:26.955Z,7.59
2019-01-16T02:24:09.746Z,7.60
2019-01-16T02:25:09.834Z,7.62
2019-01-16T02:26:09.921Z,7.59
2019-01-16T02:27:10.013Z,7.63
2019-01-16T02:28:10.107Z,7.56
2019-01-16T02:29:10.186Z,7.60
2019-01-16T02:30:10.276Z,7.63
2019-01-16T02:31:10.367Z,7.58
2019-01-16T02:32:10.456Z,7.52
2019-01-16T02:33:10.541Z,7.42
2019-01-16T02:34:10.632Z,7.45
2019-01-16T02:35:17.891Z,7.53
2019-01-16T02:36:10.858Z,7.59
2019-01-16T02:37:10.950Z,7.58
2019-01-16T02:38:11.044Z,7.62
2019-01-16T02:39:11.127Z,7.55
2019-01-16T02:40:11.216Z,7.59
2019-01-16T02:41:11.302Z,7.71
2019-01-16T02:42:11.390Z,7.56
2019-01-16T02:43:11.479Z,7.59
2019-01-16T02:44:11.570Z,7.55
2019-01-16T02:45:11.660Z,7.56
2019-01-16T02:46:11.748Z,7.59
2019-01-16T02:47:11.834Z,7.58
2019-01-16T02:48:11.926Z,7.58
2019-01-16T02:49:12.012Z,7.62
2019-01-16T02:50:12.098Z,7.47
2019-01-16T02:51:12.188Z,7.38
2019-01-16T02:52:12.278Z,7.49
2019-01-16T02:53:12.364Z,7.50
2019-01-16T02:54:12.459Z,7.53
2019-01-16T02:55:12.547Z,7.49
2019-01-16T02:56:12.640Z,7.42
2019-01-16T02:57:12.722Z,7.44
2019-01-16T02:58:12.815Z,7.42
2019-01-16T02:59:12.908Z,7.47
2019-01-16T03:00:13.003Z,7.32
2019-01-16T03:01:13.080Z,7.17
2019-01-16T03:02:13.195Z,7.13
2019-01-16T03:03:13.260Z,7.20
2019-01-16T03:04:13.350Z,7.20
2019-01-16T03:05:13.439Z,7.20
2019-01-16T03:06:13.527Z,7.19
2019-01-16T03:07:13.615Z,7.26
2019-01-16T03:08:13.706Z,7.19
2019-01-16T03:09:13.794Z,7.26
2019-01-16T03:10:13.884Z,7.22
2019-01-16T03:11:13.971Z,7.26
2019-01-16T03:12:14.061Z,7.27
2019-01-16T03:13:14.147Z,7.32
2019-01-16T03:14:14.235Z,7.35
2019-01-16T03:15:14.325Z,7.31
2019-01-16T03:16:14.415Z,7.37
2019-01-16T03:17:14.505Z,7.35
2019-01-16T03:18:14.594Z,7.35
2019-01-16T03:19:14.679Z,7.44
2019-01-16T03:20:14.769Z,7.37
2019-01-16T03:21:14.857Z,7.44
2019-01-16T03:22:14.957Z,7.34
2019-01-16T03:23:15.044Z,7.24
2019-01-16T03:24:15.131Z,7.32
2019-01-16T03:25:15.215Z,7.38
2019-01-16T03:26:15.295Z,7.26
2019-01-16T03:27:15.389Z,7.26
2019-01-16T03:28:15.476Z,7.27
2019-01-16T03:29:15.559Z,7.40
2019-01-16T03:30:15.663Z,7.35
2019-01-16T03:31:15.757Z,7.45
2019-01-16T03:32:15.824Z,7.35
2019-01-16T03:33:15.918Z,7.42
2019-01-16T03:34:16.004Z,7.40
2019-01-16T03:35:16.095Z,7.38
2019-01-16T03:36:16.182Z,7.35
2019-01-16T03:37:16.271Z,7.20
2019-01-16T03:38:16.358Z,7.22
2019-01-16T03:39:16.451Z,7.29
2019-01-16T03:40:16.537Z,7.22
2019-01-16T03:41:16.636Z,7.32
2019-01-16T03:42:16.736Z,7.29
2019-01-16T03:43:16.829Z,7.38
2019-01-16T03:44:16.915Z,7.37
2019-01-16T03:45:17.002Z,7.35
2019-01-16T03:46:17.093Z,7.29
2019-01-16T03:47:17.180Z,7.32
2019-01-16T03:48:17.269Z,7.31
2019-01-16T03:49:17.357Z,7.22
2019-01-16T03:50:17.448Z,7.24
2019-01-16T03:51:17.534Z,7.34
2019-01-16T03:52:17.629Z,7.34
2019-01-16T03:53:17.715Z,7.41
2019-01-16T03:54:17.802Z,7.37
2019-01-16T03:55:17.891Z,7.37
2019-01-16T03:56:17.982Z,7.34
2019-01-16T03:57:18.071Z,7.23
2019-01-16T03:58:18.157Z,7.26
2019-01-16T03:59:18.246Z,7.26
2019-01-16T04:00:18.336Z,7.31
2019-01-16T04:01:18.420Z,7.22
2019-01-16T04:02:18.508Z,7.29
2019-01-16T04:03:18.608Z,7.20
2019-01-16T04:04:18.678Z,7.31
2019-01-16T04:05:18.769Z,7.19
2019-01-16T04:06:18.907Z,7.20
2019-01-16T04:07:18.950Z,7.13
2019-01-16T04:08:19.032Z,7.12
2019-01-16T04:09:19.124Z,7.01
2019-01-16T04:10:19.209Z,7.19
2019-01-16T04:11:19.303Z,7.09
2019-01-16T04:12:19.389Z,7.19
2019-01-16T04:13:19.479Z,7.15
2019-01-16T04:14:19.563Z,7.23
2019-01-16T04:15:19.654Z,7.29
2019-01-16T04:16:19.744Z,7.20
2019-01-16T04:17:19.835Z,7.16
2019-01-16T04:18:19.923Z,7.19
2019-01-16T04:19:21.802Z,7.13
2019-01-16T04:20:20.100Z,7.23
2019-01-16T04:21:20.192Z,7.17
2019-01-16T04:22:20.280Z,7.26
2019-01-16T04:23:20.360Z,7.26
2019-01-16T04:24:20.461Z,7.17
2019-01-16T04:25:20.550Z,7.07
2019-01-16T04:26:20.638Z,7.07
2019-01-16T04:27:20.727Z,7.08
2019-01-16T04:28:20.812Z,7.05
2019-01-16T04:29:20.903Z,7.15
2019-01-16T04:30:20.985Z,7.02
2019-01-16T04:31:21.073Z,7.09
2019-01-16T04:32:21.163Z,6.99
2019-01-16T04:33:21.254Z,6.95
2019-01-16T04:34:21.338Z,6.94
2019-01-16T04:35:21.429Z,6.97
2019-01-16T04:36:21.522Z,6.97
2019-01-16T04:37:21.609Z,7.05
2019-01-16T04:38:21.699Z,7.05
2019-01-16T04:39:21.787Z,7.12
2019-01-16T04:40:21.875Z,7.22
2019-01-16T04:41:21.966Z,7.15
2019-01-16T04:42:22.056Z,7.19
2019-01-16T04:43:22.144Z,6.99
2019-01-16T04:44:22.228Z,7.13
2019-01-16T04:45:22.320Z,7.15
2019-01-16T04:46:22.479Z,7.19
2019-01-16T04:47:22.498Z,7.19
2019-01-16T04:48:22.588Z,7.15
2019-01-16T04:49:30.144Z,7.16
2019-01-16T04:50:22.765Z,7.23
2019-01-16T04:51:22.854Z,7.05
2019-01-16T04:52:22.941Z,7.05
2019-01-16T04:53:23.031Z,7.01
2019-01-16T04:54:23.121Z,7.09
2019-01-16T04:55:23.208Z,6.95
2019-01-16T04:56:23.306Z,7.04
2019-01-16T04:57:23.392Z,7.02
2019-01-16T04:58:23.480Z,7.15
2019-01-16T04:59:23.573Z,7.12
2019-01-16T05:00:23.667Z,7.16
2019-01-16T05:01:23.747Z,7.17
2019-01-16T05:02:23.840Z,7.12
2019-01-16T05:03:23.925Z,7.13
2019-01-16T05:04:24.011Z,7.19
2019-01-16T05:05:24.102Z,7.07
2019-01-16T05:06:24.189Z,7.19
2019-01-16T05:07:24.281Z,7.15
2019-01-16T05:08:24.370Z,7.19
2019-01-16T05:09:24.457Z,7.20
2019-01-16T05:10:24.547Z,7.22
2019-01-16T05:11:24.638Z,7.15
2019-01-16T05:12:24.727Z,7.17
2019-01-16T05:13:24.815Z,7.23
2019-01-16T05:14:24.905Z,7.16
2019-01-16T05:15:24.989Z,7.15
2019-01-16T05:16:25.090Z,7.19
2019-01-16T05:17:25.175Z,7.19
2019-01-16T05:18:25.253Z,7.13
2019-01-16T05:19:25.359Z,7.24
2019-01-16T05:20:25.446Z,7.20
2019-01-16T05:21:25.531Z,7.13
2019-01-16T05:22:25.620Z,7.13
2019-01-16T05:23:25.720Z,7.17
2019-01-16T05:24:25.803Z,7.23
2019-01-16T05:25:25.887Z,7.19
2019-01-16T05:26:27.712Z,6.84
2019-01-16T05:27:26.061Z,6.76
2019-01-16T05:28:26.142Z,6.79
2019-01-16T05:29:26.233Z,6.79
2019-01-16T05:30:26.314Z,6.71
2019-01-16T05:31:26.402Z,6.68
2019-01-16T05:32:26.499Z,6.66
2019-01-16T05:33:26.588Z,6.65
2019-01-16T05:34:35.315Z,6.63
2019-01-16T05:35:26.791Z,6.66
2019-01-16T05:36:35.518Z,6.69
2019-01-16T05:37:35.618Z,6.76
2019-01-16T05:38:27.084Z,6.69
2019-01-16T05:39:27.170Z,6.66
2019-01-16T05:40:27.261Z,6.72
2019-01-16T05:41:27.356Z,6.81
2019-01-16T05:42:27.444Z,6.73
2019-01-16T05:43:27.524Z,6.87
2019-01-16T05:44:27.614Z,6.86
2019-01-16T05:45:27.703Z,6.95
2019-01-16T05:46:36.433Z,6.94
2019-01-16T05:47:36.539Z,6.97
2019-01-16T05:48:28.003Z,7.01
2019-01-16T05:49:28.093Z,7.01
2019-01-16T05:50:28.181Z,7.05
2019-01-16T05:51:28.269Z,6.90
2019-01-16T05:52:28.356Z,6.94
2019-01-16T05:53:28.445Z,6.89
2019-01-16T05:54:28.538Z,7.08
2019-01-16T05:55:28.624Z,7.05
2019-01-16T05:56:28.708Z,7.15
2019-01-16T05:57:28.796Z,7.08
2019-01-16T05:58:28.911Z,7.15
2019-01-16T05:59:28.961Z,7.20
2019-01-16T06:00:29.049Z,7.23
2019-01-16T06:01:29.138Z,7.19
2019-01-16T06:02:29.228Z,7.17
2019-01-16T06:03:29.748Z,7.19
2019-01-16T06:04:29.406Z,7.22
2019-01-16T06:05:29.496Z,7.20
2019-01-16T06:06:29.584Z,7.20
2019-01-16T06:07:29.676Z,7.26
2019-01-16T06:08:29.768Z,7.17
2019-01-16T06:09:29.852Z,7.20
2019-01-16T06:10:29.947Z,7.22
2019-01-16T06:11:30.033Z,7.07
2019-01-16T06:12:30.151Z,7.15
2019-01-16T06:13:30.215Z,7.20
2019-01-16T06:14:30.298Z,7.22
2019-01-16T06:15:30.387Z,7.16
2019-01-16T06:16:30.478Z,7.12
2019-01-16T06:17:30.570Z,7.12
2019-01-16T06:18:30.659Z,7.15
2019-01-16T06:19:30.745Z,7.15
2019-01-16T06:20:30.843Z,7.13
2019-01-16T06:21:30.932Z,7.04
2019-01-16T06:22:31.021Z,7.04
2019-01-16T06:23:31.112Z,7.13
2019-01-16T06:24:31.201Z,7.04
2019-01-16T06:25:31.290Z,7.02
2019-01-16T06:26:31.388Z,7.09
2019-01-16T06:27:32.505Z,7.13
2019-01-16T06:28:31.559Z,7.17
2019-01-16T06:29:31.648Z,7.13
2019-01-16T06:30:31.737Z,7.12
2019-01-16T06:31:31.829Z,7.16
2019-01-16T06:32:31.920Z,7.19
2019-01-16T06:33:32.008Z,7.20
2019-01-16T06:34:32.100Z,7.23
2019-01-16T06:35:32.192Z,7.26
2019-01-16T06:36:32.281Z,7.17
2019-01-16T06:37:32.371Z,7.26
2019-01-16T06:38:32.465Z,7.27
2019-01-16T06:39:32.555Z,7.24
2019-01-16T06:40:32.646Z,7.22
2019-01-16T06:41:32.724Z,7.24
2019-01-16T06:42:32.822Z,7.26
2019-01-16T06:43:32.954Z,7.17
2019-01-16T06:44:32.996Z,7.15
2019-01-16T06:45:33.087Z,7.23
2019-01-16T06:46:33.178Z,7.19
2019-01-16T06:47:33.324Z,7.07
2019-01-16T06:48:33.346Z,7.09
2019-01-16T06:49:33.441Z,7.17
2019-01-16T06:50:33.533Z,7.19
2019-01-16T06:51:33.623Z,7.16
2019-01-16T06:52:33.714Z,7.23
2019-01-16T06:53:33.804Z,7.17
2019-01-16T06:54:33.893Z,7.09
2019-01-16T06:55:33.986Z,7.15
2019-01-16T06:56:34.071Z,7.15
2019-01-16T06:57:34.167Z,7.16
2019-01-16T06:58:34.255Z,7.08
2019-01-16T06:59:34.344Z,7.19
2019-01-16T07:00:34.432Z,7.22
2019-01-16T07:01:34.521Z,7.19
2019-01-16T07:02:34.612Z,7.09
2019-01-16T07:03:34.706Z,7.07
2019-01-16T07:04:34.797Z,7.23
2019-01-16T07:05:34.880Z,7.15
2019-01-16T07:06:34.969Z,7.13
2019-01-16T07:07:35.065Z,7.23
2019-01-16T07:08:35.153Z,7.17
2019-01-16T07:09:35.241Z,7.20
2019-01-16T07:10:35.369Z,7.05
2019-01-16T07:11:35.420Z,7.16
2019-01-16T07:12:35.507Z,7.01
2019-01-16T07:13:35.600Z,7.15
2019-01-16T07:14:35.690Z,7.09
2019-01-16T07:15:35.777Z,7.17
2019-01-16T07:16:35.869Z,7.17
2019-01-16T07:17:35.960Z,7.17
2019-01-16T07:18:36.051Z,7.15
2019-01-16T07:19:36.140Z,7.17
2019-01-16T07:20:36.231Z,7.24
2019-01-16T07:21:36.321Z,7.20
2019-01-16T07:22:36.405Z,7.26
2019-01-16T07:23:36.494Z,7.27
2019-01-16T07:24:36.585Z,7.20
2019-01-16T07:25:36.671Z,7.15
2019-01-16T07:26:36.763Z,7.32
2019-01-16T07:27:36.859Z,7.17
2019-01-16T07:28:36.950Z,7.17
2019-01-16T07:29:37.047Z,7.12
2019-01-16T07:30:37.140Z,7.13
2019-01-16T07:31:37.233Z,7.07
2019-01-16T07:32:37.325Z,7.04
2019-01-16T07:33:37.421Z,7.05
2019-01-16T07:34:37.515Z,7.16
2019-01-16T07:35:37.610Z,7.02
2019-01-16T07:39:21.828Z,7.01
2019-01-16T07:40:21.916Z,6.95
2019-01-16T07:41:22.011Z,6.99
2019-01-16T07:42:22.097Z,7.01
2019-01-16T07:43:22.189Z,7.05
2019-01-16T07:44:22.284Z,7.02
2019-01-16T07:45:22.367Z,7.19
2019-01-16T07:46:22.456Z,7.17
2019-01-16T07:47:22.546Z,7.09
2019-01-16T07:48:22.634Z,7.13
2019-01-16T07:49:22.728Z,7.12
2019-01-16T07:50:22.820Z,6.97
2019-01-16T07:51:22.894Z,6.94
2019-01-16T07:52:22.982Z,6.79
2019-01-16T07:53:23.074Z,6.81
2019-01-16T07:54:23.164Z,6.80
2019-01-16T07:55:23.295Z,6.69
2019-01-16T07:56:23.393Z,6.65
2019-01-16T07:57:23.483Z,6.63
2019-01-16T07:58:23.570Z,6.69
2019-01-16T07:59:23.655Z,6.73
2019-01-16T08:00:23.746Z,6.83
2019-01-16T08:01:23.834Z,6.90
2019-01-16T08:02:23.924Z,6.91
2019-01-16T08:03:24.016Z,6.90
2019-01-16T08:04:24.111Z,7.07
2019-01-16T08:05:24.193Z,7.05
2019-01-16T08:06:24.286Z,7.04
2019-01-16T08:07:24.374Z,7.15
2019-01-16T08:08:24.466Z,7.16
2019-01-16T08:09:24.553Z,7.13
2019-01-16T08:10:24.639Z,7.24
2019-01-16T08:11:24.730Z,7.19
2019-01-16T08:12:24.821Z,7.24
2019-01-16T08:13:24.911Z,7.27
2019-01-16T08:14:24.995Z,7.22
2019-01-16T08:15:25.079Z,7.31
2019-01-16T08:16:25.172Z,7.26
2019-01-16T08:17:25.265Z,7.37
2019-01-16T08:18:25.350Z,7.38
2019-01-16T08:19:25.438Z,7.35
2019-01-16T08:20:25.528Z,7.31
2019-01-16T08:21:25.626Z,7.42
2019-01-16T08:22:25.715Z,7.37
2019-01-16T08:23:25.805Z,7.44
2019-01-16T08:24:25.891Z,7.41
2019-01-16T08:25:25.991Z,7.44
2019-01-16T08:26:26.071Z,7.42
2019-01-16T08:27:26.167Z,7.45
2019-01-16T08:28:26.269Z,7.45
2019-01-16T08:29:26.359Z,7.42
2019-01-16T08:30:26.447Z,7.53
2019-01-16T08:31:26.537Z,7.37
2019-01-16T08:32:26.621Z,7.42
2019-01-16T08:33:26.718Z,7.27
2019-01-16T08:34:26.808Z,7.42
2019-01-16T08:35:26.886Z,7.44
2019-01-16T08:36:26.975Z,7.47
2019-01-16T08:37:27.068Z,7.40
2019-01-16T08:38:27.150Z,7.45
2019-01-16T08:39:27.245Z,7.45
2019-01-16T08:40:27.334Z,7.44
2019-01-16T08:41:27.422Z,7.44
2019-01-16T08:42:27.505Z,7.40
2019-01-16T08:43:27.602Z,7.23
2019-01-16T08:44:27.690Z,7.17
2019-01-16T08:45:27.782Z,7.17
2019-01-16T08:46:27.876Z,7.24
2019-01-16T08:47:27.957Z,7.32
2019-01-16T08:48:28.048Z,7.38
2019-01-16T08:49:28.139Z,7.20
2019-01-16T08:50:32.491Z,7.35
2019-01-16T08:51:28.317Z,7.38
2019-01-16T08:52:28.413Z,7.41
2019-01-16T08:53:28.494Z,7.37
2019-01-16T08:54:28.584Z,7.44
2019-01-16T08:55:28.664Z,7.41
2019-01-16T08:56:28.753Z,7.50
2019-01-16T08:57:28.845Z,7.45
2019-01-16T08:58:28.935Z,7.44
2019-01-16T08:59:29.010Z,7.47
2019-01-16T09:00:29.116Z,7.52
2019-01-16T09:01:32.783Z,7.49
2019-01-16T09:02:29.313Z,7.55
2019-01-16T09:03:29.386Z,7.41
2019-01-16T09:04:29.482Z,7.41
2019-01-16T09:05:29.582Z,7.41
2019-01-16T09:06:29.669Z,7.50
2019-01-16T09:07:29.765Z,7.55
2019-01-16T09:08:29.856Z,7.49
2019-01-16T09:09:29.945Z,7.55
2019-01-16T09:10:30.035Z,7.34
2019-01-16T09:11:30.165Z,7.37
2019-01-16T09:14:14.301Z,7.42
2019-01-16T09:15:14.393Z,7.41
2019-01-16T09:16:14.481Z,7.45
2019-01-16T09:17:14.574Z,7.49
2019-01-16T09:18:14.680Z,7.42
2019-01-16T09:19:14.742Z,7.50
2019-01-16T09:20:14.833Z,7.45
2019-01-16T09:21:14.914Z,7.44
2019-01-16T09:22:15.001Z,7.44
2019-01-16T09:23:15.083Z,7.42
2019-01-16T09:24:15.173Z,7.44
2019-01-16T09:25:15.275Z,7.24
2019-01-16T09:26:15.363Z,7.24
2019-01-16T09:27:15.453Z,7.24
2019-01-16T09:28:15.534Z,7.22
2019-01-16T09:29:15.625Z,7.24
2019-01-16T09:30:15.717Z,7.42
2019-01-16T09:31:15.795Z,7.20
2019-01-16T09:32:15.878Z,7.35
2019-01-16T09:33:15.967Z,7.23
2019-01-16T09:34:16.053Z,7.24
2019-01-16T09:35:16.143Z,7.27
2019-01-16T09:36:16.226Z,7.40
2019-01-16T09:37:16.326Z,7.45
2019-01-16T09:38:16.404Z,7.45
2019-01-16T09:39:16.491Z,7.52
2019-01-16T09:40:16.579Z,7.58
2019-01-16T09:41:16.669Z,7.58
2019-01-16T09:42:16.784Z,7.47
2019-01-16T09:43:16.843Z,7.44
2019-01-16T09:44:16.931Z,7.53
2019-01-16T09:45:17.021Z,7.47
2019-01-16T09:46:17.113Z,7.58
2019-01-16T09:47:17.202Z,7.53
2019-01-16T09:48:17.292Z,7.58
2019-01-16T09:49:17.381Z,7.55
2019-01-16T09:50:17.474Z,7.49
2019-01-16T09:51:17.565Z,7.56
2019-01-16T09:52:17.644Z,7.40
2019-01-16T09:53:17.735Z,7.42
2019-01-16T09:54:17.818Z,7.50
2019-01-16T09:55:17.911Z,7.55
2019-01-16T09:56:18.005Z,7.17
2019-01-16T09:57:18.135Z,7.19
2019-01-16T09:58:18.158Z,7.24
2019-01-16T09:59:18.250Z,7.24
2019-01-16T10:00:18.337Z,7.34
2019-01-16T10:01:18.428Z,7.38
2019-01-16T10:02:18.549Z,7.40
2019-01-16T10:03:18.596Z,7.38
2019-01-16T10:04:18.697Z,7.37
2019-01-16T10:05:18.771Z,7.22
2019-01-16T10:06:18.972Z,7.40
2019-01-16T10:07:18.960Z,7.24
2019-01-16T10:08:19.064Z,7.16
2019-01-16T10:09:19.129Z,7.24
2019-01-16T10:10:19.219Z,7.26
2019-01-16T10:11:19.310Z,7.23
2019-01-16T10:12:19.406Z,7.32
2019-01-16T10:13:19.483Z,7.17
2019-01-16T10:14:19.579Z,7.15
2019-01-16T10:15:19.667Z,7.08
2019-01-16T10:16:19.748Z,7.19
2019-01-16T10:17:19.928Z,7.17
2019-01-16T10:18:19.967Z,7.17
2019-01-16T10:19:20.054Z,7.20
2019-01-16T10:20:20.134Z,7.08
2019-01-16T10:21:20.221Z,7.16
2019-01-16T10:22:20.297Z,7.16
2019-01-16T10:23:20.381Z,7.09
2019-01-16T10:24:20.462Z,7.01
2019-01-16T10:25:20.569Z,7.05
2019-01-16T10:26:20.619Z,7.19
2019-01-16T10:27:20.698Z,7.16
2019-01-16T10:28:20.781Z,7.16
2019-01-16T10:29:20.881Z,7.24
2019-01-16T10:30:20.961Z,7.38
2019-01-16T10:31:21.062Z,7.17
2019-01-16T10:32:21.107Z,7.09
2019-01-16T10:33:21.188Z,7.12
2019-01-16T10:34:21.283Z,7.17
2019-01-16T10:35:21.356Z,7.12
2019-01-16T10:36:21.436Z,7.17
2019-01-16T10:37:21.513Z,7.12
2019-01-16T10:38:21.608Z,6.84
2019-01-16T10:39:21.695Z,6.81
2019-01-16T10:40:21.780Z,6.87
2019-01-16T10:41:21.864Z,6.77
2019-01-16T10:42:21.948Z,7.02
2019-01-16T10:43:22.035Z,7.05
2019-01-16T10:44:22.133Z,6.97
2019-01-16T10:45:22.231Z,7.04
2019-01-16T10:46:22.280Z,6.99
2019-01-16T10:47:22.372Z,7.20
2019-01-16T10:48:22.463Z,7.15
2019-01-16T10:49:22.551Z,7.12
2019-01-16T10:50:22.623Z,7.15
2019-01-16T10:51:22.724Z,7.19
2019-01-16T10:52:22.790Z,7.16
2019-01-16T10:53:22.876Z,7.19
2019-01-16T10:54:22.974Z,7.42
2019-01-16T10:55:23.012Z,7.32
2019-01-16T10:56:23.118Z,7.37
2019-01-16T10:57:23.199Z,7.35
2019-01-16T10:58:23.254Z,7.31
2019-01-16T10:59:23.333Z,7.31
2019-01-16T11:00:23.421Z,7.45
2019-01-16T11:01:23.515Z,7.42
2019-01-16T11:02:23.605Z,7.52
2019-01-16T11:03:23.695Z,7.37
2019-01-16T11:04:23.777Z,7.44
2019-01-16T11:05:23.870Z,7.40
2019-01-16T11:06:23.951Z,7.24
2019-01-16T11:07:24.049Z,7.23
2019-01-16T11:08:24.130Z,7.38
2019-01-16T11:09:24.225Z,7.32
2019-01-16T11:10:24.317Z,7.47
2019-01-16T11:11:24.403Z,7.41
2019-01-16T11:12:24.489Z,7.40
2019-01-16T11:13:24.592Z,7.44
2019-01-16T11:14:24.660Z,7.38
2019-01-16T11:15:24.759Z,7.40
2019-01-16T11:16:24.847Z,7.44
2019-01-16T11:17:24.949Z,7.49
2019-01-16T11:18:25.021Z,7.58
2019-01-16T11:19:25.110Z,7.49
2019-01-16T11:20:25.201Z,7.47
2019-01-16T11:21:25.290Z,7.42
2019-01-16T11:22:25.384Z,7.45
2019-01-16T11:23:25.461Z,7.53
2019-01-16T11:24:25.554Z,7.59
2019-01-16T11:25:25.640Z,7.58
2019-01-16T11:26:25.718Z,7.60
2019-01-16T11:27:25.834Z,7.66
2019-01-16T11:28:25.903Z,7.66
2019-01-16T11:29:25.986Z,7.67
2019-01-16T11:30:26.082Z,7.60
2019-01-16T11:31:26.157Z,7.63
2019-01-16T11:32:26.259Z,7.67
2019-01-16T11:33:26.332Z,7.41
2019-01-16T11:34:26.414Z,7.47
2019-01-16T11:35:26.515Z,7.45
2019-01-16T11:36:26.630Z,7.49
2019-01-16T11:37:26.724Z,7.41
2019-01-16T11:38:26.802Z,7.24
2019-01-16T11:39:26.896Z,7.22
2019-01-16T11:40:26.984Z,7.38
2019-01-16T11:41:27.073Z,7.41
2019-01-16T11:42:27.158Z,7.44
2019-01-16T11:43:27.247Z,7.45
2019-01-16T11:44:27.337Z,7.45
2019-01-16T11:45:27.422Z,7.44
2019-01-16T11:46:27.512Z,7.37
2019-01-16T11:47:27.600Z,7.47
2019-01-16T11:48:27.687Z,7.50
2019-01-16T11:49:27.775Z,7.27
2019-01-16T11:50:27.870Z,7.41
2019-01-16T11:51:33.633Z,7.27
2019-01-16T11:52:28.039Z,7.27
2019-01-16T11:53:28.143Z,7.32
2019-01-16T11:54:28.211Z,7.47
2019-01-16T11:55:28.300Z,7.49
2019-01-16T11:56:28.375Z,7.45
2019-01-16T11:57:28.480Z,7.50
2019-01-16T11:58:28.570Z,7.55
2019-01-16T11:59:29.206Z,7.52
2019-01-16T12:00:28.752Z,7.45
2019-01-16T12:01:28.836Z,7.37
2019-01-16T12:02:28.942Z,7.20
2019-01-16T12:03:29.007Z,7.27
2019-01-16T12:04:29.087Z,7.19
2019-01-16T12:05:29.174Z,7.19
2019-01-16T12:06:29.260Z,7.17
2019-01-16T12:07:29.347Z,7.16
2019-01-16T12:08:29.427Z,7.20
2019-01-16T12:09:29.515Z,7.13
2019-01-16T12:10:29.602Z,7.22
2019-01-16T12:11:29.678Z,7.19
2019-01-16T12:12:29.788Z,7.04
2019-01-16T12:13:29.859Z,7.16
2019-01-16T12:14:29.962Z,6.99
2019-01-16T12:15:30.044Z,6.91
2019-01-16T12:16:30.127Z,7.07
2019-01-16T12:17:30.222Z,7.04
2019-01-16T12:18:30.313Z,7.07
2019-01-16T12:19:30.392Z,7.17
2019-01-16T12:20:30.482Z,7.08
2019-01-16T12:21:30.570Z,7.05
2019-01-16T12:22:30.657Z,7.02
2019-01-16T12:23:30.743Z,7.15
2019-01-16T12:24:30.862Z,7.19
2019-01-16T12:25:30.936Z,7.26
2019-01-16T12:26:31.080Z,7.34
2019-01-16T12:27:31.107Z,7.41
2019-01-16T12:28:31.175Z,7.32
2019-01-16T12:29:31.294Z,7.37
2019-01-16T12:30:31.354Z,7.38
2019-01-16T12:31:31.436Z,7.40
2019-01-16T12:32:31.501Z,7.41
2019-01-16T12:33:31.589Z,7.40
2019-01-16T12:34:31.689Z,7.31
2019-01-16T12:35:31.759Z,7.38
2019-01-16T12:36:31.882Z,7.35
2019-01-16T12:37:31.913Z,7.34
2019-01-16T12:38:31.997Z,7.45
2019-01-16T12:39:32.073Z,7.34
2019-01-16T12:40:32.157Z,7.41
2019-01-16T12:41:32.242Z,7.37
2019-01-16T12:42:32.327Z,7.47
2019-01-16T12:43:32.414Z,7.49
2019-01-16T12:44:32.510Z,7.45
2019-01-16T12:45:32.603Z,7.45
2019-01-16T12:46:32.690Z,7.63
2019-01-16T12:47:32.772Z,7.55
2019-01-16T12:50:15.893Z,7.52
2019-01-16T12:51:15.980Z,7.44
2019-01-16T12:52:16.084Z,7.45
2019-01-16T12:53:16.164Z,7.49
2019-01-16T12:54:16.242Z,7.15
2019-01-16T12:55:16.330Z,7.15
2019-01-16T12:56:16.423Z,7.24
2019-01-16T12:57:16.508Z,7.24
2019-01-16T12:58:16.598Z,7.09
2019-01-16T12:59:16.689Z,7.27
2019-01-16T13:00:16.778Z,7.31
2019-01-16T13:01:16.864Z,7.26
2019-01-16T13:02:16.955Z,7.13
2019-01-16T13:03:17.055Z,7.05
2019-01-16T13:04:17.144Z,7.12
2019-01-16T13:05:17.235Z,7.16
2019-01-16T13:06:17.323Z,7.15
2019-01-16T13:07:17.410Z,7.16
2019-01-16T13:08:17.504Z,7.15
2019-01-16T13:09:17.595Z,7.20
2019-01-16T13:10:17.680Z,7.12
2019-01-16T13:11:17.765Z,7.19
2019-01-16T13:12:17.856Z,7.13
2019-01-16T13:13:17.949Z,7.15
2019-01-16T13:14:18.048Z,7.22
2019-01-16T13:15:18.140Z,7.16
2019-01-16T13:16:18.219Z,7.15
2019-01-16T13:17:18.321Z,7.17
2019-01-16T13:18:18.401Z,7.04
2019-01-16T13:19:18.493Z,6.91
2019-01-16T13:20:18.581Z,6.91
2019-01-16T13:21:18.669Z,6.91
2019-01-16T13:22:18.759Z,6.99
2019-01-16T13:23:18.846Z,6.91
2019-01-16T13:24:18.934Z,7.05
2019-01-16T13:25:19.021Z,7.05
2019-01-16T13:26:19.110Z,6.95
2019-01-16T13:27:19.195Z,6.84